sensor_id;sensor_type;location;lat;lon;timestamp;P1;durP1;ratioP1;P2;durP2;ratioP2
5379;SDS011;2713;42.680;23.310;2022-08-07T00:02:05;12.37;;;11.10;;
5379;SDS011;2713;42.680;23.310;2022-08-07T00:04:32;14.00;;;11.07;;
5379;SDS011;2713;42.680;23.310;2022-08-07T00:07:00;13.23;;;11.80;;
5379;SDS011;2713;42.680;23.310;2022-08-07T00:09:27;13.90;;;11.00;;
5379;SDS011;2713;42.680;23.310;2022-08-07T00:11:54;13.37;;;12.00;;
5379;SDS011;2713;42.680;23.310;2022-08-07T00:14:22;13.07;;;11.70;;
5379;SDS011;2713;42.680;23.310;2022-08-07T00:16:51;13.67;;;12.27;;
5379;SDS011;2713;42.680;23.310;2022-08-07T00:19:18;13.00;;;11.70;;
5379;SDS011;2713;42.680;23.310;2022-08-07T00:21:44;12.57;;;11.27;;
5379;SDS011;2713;42.680;23.310;2022-08-07T00:24:13;12.37;;;10.97;;
5379;SDS011;2713;42.680;23.310;2022-08-07T00:26:40;12.83;;;11.50;;
5379;SDS011;2713;42.680;23.310;2022-08-07T00:29:06;13.10;;;11.80;;
5379;SDS011;2713;42.680;23.310;2022-08-07T00:31:33;13.10;;;11.80;;
5379;SDS011;2713;42.680;23.310;2022-08-07T00:34:00;13.53;;;11.60;;
5379;SDS011;2713;42.680;23.310;2022-08-07T00:36:27;13.03;;;11.63;;
5379;SDS011;2713;42.680;23.310;2022-08-07T00:38:54;14.03;;;12.63;;
5379;SDS011;2713;42.680;23.310;2022-08-07T00:41:26;12.47;;;11.17;;
5379;SDS011;2713;42.680;23.310;2022-08-07T00:43:56;12.70;;;11.40;;
5379;SDS011;2713;42.680;23.310;2022-08-07T00:46:23;12.47;;;11.27;;
5379;SDS011;2713;42.680;23.310;2022-08-07T00:48:50;12.00;;;10.80;;
5379;SDS011;2713;42.680;23.310;2022-08-07T00:51:17;11.23;;;10.20;;
5379;SDS011;2713;42.680;23.310;2022-08-07T00:53:44;12.70;;;11.60;;
5379;SDS011;2713;42.680;23.310;2022-08-07T00:56:11;11.70;;;10.50;;
5379;SDS011;2713;42.680;23.310;2022-08-07T00:58:41;12.27;;;11.07;;
5379;SDS011;2713;42.680;23.310;2022-08-07T01:01:09;12.10;;;11.00;;
5379;SDS011;2713;42.680;23.310;2022-08-07T01:03:36;12.07;;;10.97;;
5379;SDS011;2713;42.680;23.310;2022-08-07T01:06:03;13.63;;;11.77;;
5379;SDS011;2713;42.680;23.310;2022-08-07T01:08:31;11.90;;;10.70;;
5379;SDS011;2713;42.680;23.310;2022-08-07T01:10:58;11.87;;;10.70;;
5379;SDS011;2713;42.680;23.310;2022-08-07T01:13:25;12.37;;;11.13;;
5379;SDS011;2713;42.680;23.310;2022-08-07T01:15:54;17.33;;;11.73;;
5379;SDS011;2713;42.680;23.310;2022-08-07T01:18:24;12.03;;;10.93;;
5379;SDS011;2713;42.680;23.310;2022-08-07T01:23:30;12.47;;;11.17;;
5379;SDS011;2713;42.680;23.310;2022-08-07T01:25:57;12.63;;;10.97;;
5379;SDS011;2713;42.680;23.310;2022-08-07T01:28:25;12.20;;;11.00;;
5379;SDS011;2713;42.680;23.310;2022-08-07T01:30:53;13.67;;;11.20;;
5379;SDS011;2713;42.680;23.310;2022-08-07T01:33:22;14.67;;;11.70;;
5379;SDS011;2713;42.680;23.310;2022-08-07T01:35:51;12.13;;;10.93;;
5379;SDS011;2713;42.680;23.310;2022-08-07T01:38:20;12.93;;;11.67;;
5379;SDS011;2713;42.680;23.310;2022-08-07T01:40:47;13.43;;;11.73;;
5379;SDS011;2713;42.680;23.310;2022-08-07T01:43:16;17.40;;;11.73;;
5379;SDS011;2713;42.680;23.310;2022-08-07T01:45:42;14.90;;;12.17;;
5379;SDS011;2713;42.680;23.310;2022-08-07T01:48:14;12.70;;;11.50;;
5379;SDS011;2713;42.680;23.310;2022-08-07T01:50:43;13.13;;;11.83;;
5379;SDS011;2713;42.680;23.310;2022-08-07T01:53:14;13.57;;;12.27;;
5379;SDS011;2713;42.680;23.310;2022-08-07T01:55:49;13.03;;;11.70;;
5379;SDS011;2713;42.680;23.310;2022-08-07T01:58:21;13.40;;;12.10;;
5379;SDS011;2713;42.680;23.310;2022-08-07T02:00:50;14.37;;;11.10;;
5379;SDS011;2713;42.680;23.310;2022-08-07T02:03:20;12.70;;;11.40;;
5379;SDS011;2713;42.680;23.310;2022-08-07T02:05:51;12.83;;;11.50;;
5379;SDS011;2713;42.680;23.310;2022-08-07T02:08:22;13.93;;;12.30;;
5379;SDS011;2713;42.680;23.310;2022-08-07T02:10:52;13.83;;;12.27;;
5379;SDS011;2713;42.680;23.310;2022-08-07T02:13:25;12.60;;;11.30;;
5379;SDS011;2713;42.680;23.310;2022-08-07T02:15:55;12.87;;;11.67;;
5379;SDS011;2713;42.680;23.310;2022-08-07T02:18:25;13.73;;;12.20;;
5379;SDS011;2713;42.680;23.310;2022-08-07T02:20:55;12.50;;;11.17;;
5379;SDS011;2713;42.680;23.310;2022-08-07T02:23:24;14.33;;;12.57;;
5379;SDS011;2713;42.680;23.310;2022-08-07T02:25:55;14.30;;;11.60;;
5379;SDS011;2713;42.680;23.310;2022-08-07T02:28:25;12.60;;;11.37;;
5379;SDS011;2713;42.680;23.310;2022-08-07T02:30:58;13.27;;;11.10;;
5379;SDS011;2713;42.680;23.310;2022-08-07T02:33:28;11.93;;;10.80;;
5379;SDS011;2713;42.680;23.310;2022-08-07T02:35:57;12.83;;;11.53;;
5379;SDS011;2713;42.680;23.310;2022-08-07T02:38:30;12.13;;;10.90;;
5379;SDS011;2713;42.680;23.310;2022-08-07T02:41:03;13.03;;;11.73;;
5379;SDS011;2713;42.680;23.310;2022-08-07T02:43:33;12.87;;;11.57;;
5379;SDS011;2713;42.680;23.310;2022-08-07T02:46:01;13.03;;;11.77;;
5379;SDS011;2713;42.680;23.310;2022-08-07T02:48:33;12.53;;;11.10;;
5379;SDS011;2713;42.680;23.310;2022-08-07T02:51:04;11.83;;;10.63;;
5379;SDS011;2713;42.680;23.310;2022-08-07T02:53:34;12.83;;;9.70;;
5379;SDS011;2713;42.680;23.310;2022-08-07T02:56:07;11.33;;;10.13;;
5379;SDS011;2713;42.680;23.310;2022-08-07T02:58:38;11.77;;;10.27;;
5379;SDS011;2713;42.680;23.310;2022-08-07T03:01:07;10.50;;;9.60;;
5379;SDS011;2713;42.680;23.310;2022-08-07T03:03:36;11.60;;;10.20;;
5379;SDS011;2713;42.680;23.310;2022-08-07T03:06:03;9.73;;;8.83;;
5379;SDS011;2713;42.680;23.310;2022-08-07T03:08:30;10.00;;;9.10;;
5379;SDS011;2713;42.680;23.310;2022-08-07T03:10:59;10.07;;;9.17;;
5379;SDS011;2713;42.680;23.310;2022-08-07T03:13:37;10.13;;;8.90;;
5379;SDS011;2713;42.680;23.310;2022-08-07T03:16:05;10.20;;;9.20;;
5379;SDS011;2713;42.680;23.310;2022-08-07T03:18:32;10.20;;;9.17;;
5379;SDS011;2713;42.680;23.310;2022-08-07T03:20:59;9.93;;;8.93;;
5379;SDS011;2713;42.680;23.310;2022-08-07T03:23:27;11.73;;;9.67;;
5379;SDS011;2713;42.680;23.310;2022-08-07T03:25:56;10.73;;;9.63;;
5379;SDS011;2713;42.680;23.310;2022-08-07T03:28:28;9.60;;;8.70;;
5379;SDS011;2713;42.680;23.310;2022-08-07T03:30:59;10.20;;;9.30;;
5379;SDS011;2713;42.680;23.310;2022-08-07T03:33:52;10.90;;;9.77;;
5379;SDS011;2713;42.680;23.310;2022-08-07T03:36:24;12.60;;;10.80;;
5379;SDS011;2713;42.680;23.310;2022-08-07T03:38:54;12.00;;;10.40;;
5379;SDS011;2713;42.680;23.310;2022-08-07T03:41:24;11.50;;;10.33;;
5379;SDS011;2713;42.680;23.310;2022-08-07T03:43:51;10.70;;;9.60;;
5379;SDS011;2713;42.680;23.310;2022-08-07T03:46:21;10.23;;;9.20;;
5379;SDS011;2713;42.680;23.310;2022-08-07T03:48:50;11.47;;;10.40;;
5379;SDS011;2713;42.680;23.310;2022-08-07T03:51:18;11.03;;;9.93;;
5379;SDS011;2713;42.680;23.310;2022-08-07T03:53:48;12.50;;;10.23;;
5379;SDS011;2713;42.680;23.310;2022-08-07T03:56:18;11.30;;;10.20;;
5379;SDS011;2713;42.680;23.310;2022-08-07T03:58:46;11.50;;;10.30;;
5379;SDS011;2713;42.680;23.310;2022-08-07T04:01:13;11.80;;;10.60;;
5379;SDS011;2713;42.680;23.310;2022-08-07T04:03:46;11.43;;;10.40;;
5379;SDS011;2713;42.680;23.310;2022-08-07T04:06:14;11.10;;;9.97;;
5379;SDS011;2713;42.680;23.310;2022-08-07T04:08:41;11.23;;;9.93;;
5379;SDS011;2713;42.680;23.310;2022-08-07T04:11:09;11.30;;;10.20;;
5379;SDS011;2713;42.680;23.310;2022-08-07T04:13:40;11.20;;;10.20;;
5379;SDS011;2713;42.680;23.310;2022-08-07T04:16:08;10.30;;;9.40;;
5379;SDS011;2713;42.680;23.310;2022-08-07T04:18:35;10.00;;;9.00;;
5379;SDS011;2713;42.680;23.310;2022-08-07T04:21:03;10.83;;;9.83;;
5379;SDS011;2713;42.680;23.310;2022-08-07T04:23:31;10.80;;;9.80;;
5379;SDS011;2713;42.680;23.310;2022-08-07T04:25:59;12.00;;;10.80;;
5379;SDS011;2713;42.680;23.310;2022-08-07T04:28:28;11.73;;;10.13;;
5379;SDS011;2713;42.680;23.310;2022-08-07T04:30:54;11.53;;;10.43;;
5379;SDS011;2713;42.680;23.310;2022-08-07T04:33:26;11.70;;;10.60;;
5379;SDS011;2713;42.680;23.310;2022-08-07T04:35:53;11.93;;;10.77;;
5379;SDS011;2713;42.680;23.310;2022-08-07T04:38:26;11.53;;;10.43;;
5379;SDS011;2713;42.680;23.310;2022-08-07T04:40:55;11.90;;;10.70;;
5379;SDS011;2713;42.680;23.310;2022-08-07T04:43:29;11.43;;;10.33;;
5379;SDS011;2713;42.680;23.310;2022-08-07T04:46:00;12.20;;;10.40;;
5379;SDS011;2713;42.680;23.310;2022-08-07T04:48:36;11.87;;;10.67;;
5379;SDS011;2713;42.680;23.310;2022-08-07T04:51:11;11.60;;;10.40;;
5379;SDS011;2713;42.680;23.310;2022-08-07T04:53:49;10.57;;;9.63;;
5379;SDS011;2713;42.680;23.310;2022-08-07T04:56:19;12.07;;;9.60;;
5379;SDS011;2713;42.680;23.310;2022-08-07T04:58:54;10.60;;;9.60;;
5379;SDS011;2713;42.680;23.310;2022-08-07T05:01:30;11.33;;;10.23;;
5379;SDS011;2713;42.680;23.310;2022-08-07T05:04:06;10.80;;;9.57;;
5379;SDS011;2713;42.680;23.310;2022-08-07T05:06:41;11.23;;;9.63;;
5379;SDS011;2713;42.680;23.310;2022-08-07T05:09:19;9.97;;;8.97;;
5379;SDS011;2713;42.680;23.310;2022-08-07T05:11:52;9.73;;;8.83;;
5379;SDS011;2713;42.680;23.310;2022-08-07T05:14:22;10.63;;;9.07;;
5379;SDS011;2713;42.680;23.310;2022-08-07T05:16:53;9.30;;;8.50;;
5379;SDS011;2713;42.680;23.310;2022-08-07T05:19:26;10.30;;;9.20;;
5379;SDS011;2713;42.680;23.310;2022-08-07T05:21:57;10.40;;;9.20;;
5379;SDS011;2713;42.680;23.310;2022-08-07T05:24:31;10.30;;;9.23;;
5379;SDS011;2713;42.680;23.310;2022-08-07T05:27:01;9.50;;;8.60;;
5379;SDS011;2713;42.680;23.310;2022-08-07T05:29:30;9.53;;;8.63;;
5379;SDS011;2713;42.680;23.310;2022-08-07T05:31:59;9.10;;;8.20;;
5379;SDS011;2713;42.680;23.310;2022-08-07T05:34:29;9.47;;;8.57;;
5379;SDS011;2713;42.680;23.310;2022-08-07T05:36:57;11.17;;;9.03;;
5379;SDS011;2713;42.680;23.310;2022-08-07T05:39:35;9.30;;;7.97;;
5379;SDS011;2713;42.680;23.310;2022-08-07T05:42:04;8.90;;;8.00;;
5379;SDS011;2713;42.680;23.310;2022-08-07T05:44:34;8.20;;;7.47;;
5379;SDS011;2713;42.680;23.310;2022-08-07T05:47:04;8.40;;;7.20;;
5379;SDS011;2713;42.680;23.310;2022-08-07T05:49:34;8.70;;;7.90;;
5379;SDS011;2713;42.680;23.310;2022-08-07T05:52:03;10.10;;;9.00;;
5379;SDS011;2713;42.680;23.310;2022-08-07T05:54:31;9.13;;;8.23;;
5379;SDS011;2713;42.680;23.310;2022-08-07T05:57:01;9.13;;;8.30;;
5379;SDS011;2713;42.680;23.310;2022-08-07T05:59:31;10.53;;;8.30;;
5379;SDS011;2713;42.680;23.310;2022-08-07T06:02:04;8.97;;;8.10;;
5379;SDS011;2713;42.680;23.310;2022-08-07T06:04:34;9.83;;;8.93;;
5379;SDS011;2713;42.680;23.310;2022-08-07T06:07:04;10.13;;;9.23;;
5379;SDS011;2713;42.680;23.310;2022-08-07T06:09:35;8.83;;;7.97;;
5379;SDS011;2713;42.680;23.310;2022-08-07T06:12:05;13.33;;;12.10;;
5379;SDS011;2713;42.680;23.310;2022-08-07T06:14:32;9.67;;;8.77;;
5379;SDS011;2713;42.680;23.310;2022-08-07T06:17:02;9.70;;;8.80;;
5379;SDS011;2713;42.680;23.310;2022-08-07T06:19:34;9.17;;;8.33;;
5379;SDS011;2713;42.680;23.310;2022-08-07T06:22:01;10.17;;;9.23;;
5379;SDS011;2713;42.680;23.310;2022-08-07T06:24:30;9.97;;;8.90;;
5379;SDS011;2713;42.680;23.310;2022-08-07T06:26:57;8.70;;;7.90;;
5379;SDS011;2713;42.680;23.310;2022-08-07T06:29:29;8.40;;;7.60;;
5379;SDS011;2713;42.680;23.310;2022-08-07T06:31:56;9.03;;;8.20;;
5379;SDS011;2713;42.680;23.310;2022-08-07T06:34:23;9.60;;;8.70;;
5379;SDS011;2713;42.680;23.310;2022-08-07T06:36:50;8.90;;;8.10;;
5379;SDS011;2713;42.680;23.310;2022-08-07T06:39:23;8.87;;;8.07;;
5379;SDS011;2713;42.680;23.310;2022-08-07T06:41:53;9.60;;;8.50;;
5379;SDS011;2713;42.680;23.310;2022-08-07T06:44:39;9.73;;;8.83;;
5379;SDS011;2713;42.680;23.310;2022-08-07T06:47:09;10.30;;;9.30;;
5379;SDS011;2713;42.680;23.310;2022-08-07T06:49:36;9.47;;;8.60;;
5379;SDS011;2713;42.680;23.310;2022-08-07T06:52:04;12.33;;;8.97;;
5379;SDS011;2713;42.680;23.310;2022-08-07T06:54:33;9.73;;;8.83;;
5379;SDS011;2713;42.680;23.310;2022-08-07T06:57:01;9.57;;;8.70;;
5379;SDS011;2713;42.680;23.310;2022-08-07T06:59:34;11.80;;;10.60;;
5379;SDS011;2713;42.680;23.310;2022-08-07T07:02:06;10.10;;;9.20;;
5379;SDS011;2713;42.680;23.310;2022-08-07T07:04:38;10.10;;;9.20;;
5379;SDS011;2713;42.680;23.310;2022-08-07T07:07:05;9.87;;;9.03;;
5379;SDS011;2713;42.680;23.310;2022-08-07T07:09:32;9.73;;;8.77;;
5379;SDS011;2713;42.680;23.310;2022-08-07T07:12:02;10.23;;;9.23;;
5379;SDS011;2713;42.680;23.310;2022-08-07T07:14:40;9.53;;;8.73;;
5379;SDS011;2713;42.680;23.310;2022-08-07T07:17:15;9.53;;;8.63;;
5379;SDS011;2713;42.680;23.310;2022-08-07T07:19:46;9.20;;;8.40;;
5379;SDS011;2713;42.680;23.310;2022-08-07T07:22:16;11.67;;;9.27;;
5379;SDS011;2713;42.680;23.310;2022-08-07T07:24:45;10.83;;;9.70;;
5379;SDS011;2713;42.680;23.310;2022-08-07T07:27:13;10.23;;;9.07;;
5379;SDS011;2713;42.680;23.310;2022-08-07T07:29:46;10.67;;;9.50;;
5379;SDS011;2713;42.680;23.310;2022-08-07T07:32:16;11.40;;;10.40;;
5379;SDS011;2713;42.680;23.310;2022-08-07T07:34:45;9.50;;;8.70;;
5379;SDS011;2713;42.680;23.310;2022-08-07T07:37:14;9.40;;;8.50;;
5379;SDS011;2713;42.680;23.310;2022-08-07T07:39:42;9.03;;;8.13;;
5379;SDS011;2713;42.680;23.310;2022-08-07T07:42:12;9.40;;;8.60;;
5379;SDS011;2713;42.680;23.310;2022-08-07T07:44:42;10.37;;;9.37;;
5379;SDS011;2713;42.680;23.310;2022-08-07T07:47:11;10.03;;;9.13;;
5379;SDS011;2713;42.680;23.310;2022-08-07T07:49:42;11.37;;;10.20;;
5379;SDS011;2713;42.680;23.310;2022-08-07T07:52:12;12.70;;;11.37;;
5379;SDS011;2713;42.680;23.310;2022-08-07T07:54:40;15.43;;;14.03;;
5379;SDS011;2713;42.680;23.310;2022-08-07T07:57:08;15.67;;;14.17;;
5379;SDS011;2713;42.680;23.310;2022-08-07T07:59:37;18.17;;;16.50;;
5379;SDS011;2713;42.680;23.310;2022-08-07T08:02:05;20.70;;;18.70;;
5379;SDS011;2713;42.680;23.310;2022-08-07T08:04:34;21.50;;;19.60;;
5379;SDS011;2713;42.680;23.310;2022-08-07T08:07:04;23.30;;;21.10;;
5379;SDS011;2713;42.680;23.310;2022-08-07T08:09:31;20.30;;;18.27;;
5379;SDS011;2713;42.680;23.310;2022-08-07T08:12:00;18.67;;;17.07;;
5379;SDS011;2713;42.680;23.310;2022-08-07T08:14:28;19.43;;;17.57;;
5379;SDS011;2713;42.680;23.310;2022-08-07T08:16:55;19.10;;;17.43;;
5379;SDS011;2713;42.680;23.310;2022-08-07T08:19:27;16.70;;;15.13;;
5379;SDS011;2713;42.680;23.310;2022-08-07T08:21:57;15.47;;;13.87;;
5379;SDS011;2713;42.680;23.310;2022-08-07T08:24:45;14.40;;;13.00;;
5379;SDS011;2713;42.680;23.310;2022-08-07T08:27:37;11.47;;;10.43;;
5379;SDS011;2713;42.680;23.310;2022-08-07T08:30:06;10.53;;;9.60;;
5379;SDS011;2713;42.680;23.310;2022-08-07T08:32:36;11.80;;;10.60;;
5379;SDS011;2713;42.680;23.310;2022-08-07T08:35:07;11.07;;;9.10;;
5379;SDS011;2713;42.680;23.310;2022-08-07T08:37:37;10.97;;;9.97;;
5379;SDS011;2713;42.680;23.310;2022-08-07T08:40:12;10.00;;;9.07;;
5379;SDS011;2713;42.680;23.310;2022-08-07T08:42:45;10.43;;;9.43;;
5379;SDS011;2713;42.680;23.310;2022-08-07T08:45:18;13.53;;;9.83;;
5379;SDS011;2713;42.680;23.310;2022-08-07T08:47:53;9.57;;;8.77;;
5379;SDS011;2713;42.680;23.310;2022-08-07T08:50:29;10.30;;;9.03;;
5379;SDS011;2713;42.680;23.310;2022-08-07T08:53:01;10.80;;;9.70;;
5379;SDS011;2713;42.680;23.310;2022-08-07T08:55:33;10.17;;;9.30;;
5379;SDS011;2713;42.680;23.310;2022-08-07T08:58:05;11.70;;;10.60;;
5379;SDS011;2713;42.680;23.310;2022-08-07T09:00:39;10.70;;;9.70;;
5379;SDS011;2713;42.680;23.310;2022-08-07T09:03:13;9.93;;;9.00;;
5379;SDS011;2713;42.680;23.310;2022-08-07T09:05:50;9.50;;;8.60;;
5379;SDS011;2713;42.680;23.310;2022-08-07T09:08:24;10.33;;;9.43;;
5379;SDS011;2713;42.680;23.310;2022-08-07T09:11:10;10.37;;;9.47;;
5379;SDS011;2713;42.680;23.310;2022-08-07T09:13:44;11.30;;;9.80;;
5379;SDS011;2713;42.680;23.310;2022-08-07T09:16:22;10.70;;;9.73;;
5379;SDS011;2713;42.680;23.310;2022-08-07T09:19:06;9.33;;;8.53;;
5379;SDS011;2713;42.680;23.310;2022-08-07T09:21:45;10.03;;;8.80;;
5379;SDS011;2713;42.680;23.310;2022-08-07T09:24:23;11.00;;;9.90;;
5379;SDS011;2713;42.680;23.310;2022-08-07T09:27:00;10.17;;;9.27;;
5379;SDS011;2713;42.680;23.310;2022-08-07T09:29:39;10.53;;;9.43;;
5379;SDS011;2713;42.680;23.310;2022-08-07T09:32:22;9.30;;;8.50;;
5379;SDS011;2713;42.680;23.310;2022-08-07T09:34:59;9.60;;;8.80;;
5379;SDS011;2713;42.680;23.310;2022-08-07T09:37:35;9.77;;;8.87;;
5379;SDS011;2713;42.680;23.310;2022-08-07T09:40:10;8.97;;;8.27;;
5379;SDS011;2713;42.680;23.310;2022-08-07T09:42:45;9.27;;;8.47;;
5379;SDS011;2713;42.680;23.310;2022-08-07T09:45:19;10.00;;;9.00;;
5379;SDS011;2713;42.680;23.310;2022-08-07T09:48:00;9.67;;;8.87;;
5379;SDS011;2713;42.680;23.310;2022-08-07T09:50:38;9.37;;;8.33;;
5379;SDS011;2713;42.680;23.310;2022-08-07T09:53:26;9.13;;;8.23;;
5379;SDS011;2713;42.680;23.310;2022-08-07T09:56:06;9.30;;;8.47;;
5379;SDS011;2713;42.680;23.310;2022-08-07T09:58:56;8.90;;;8.10;;
5379;SDS011;2713;42.680;23.310;2022-08-07T10:04:46;8.70;;;7.90;;
5379;SDS011;2713;42.680;23.310;2022-08-07T10:07:32;8.40;;;7.70;;
5379;SDS011;2713;42.680;23.310;2022-08-07T10:10:18;8.40;;;7.70;;
5379;SDS011;2713;42.680;23.310;2022-08-07T10:13:03;14.83;;;8.00;;
5379;SDS011;2713;42.680;23.310;2022-08-07T10:15:45;8.20;;;7.50;;
5379;SDS011;2713;42.680;23.310;2022-08-07T10:18:33;9.90;;;8.57;;
5379;SDS011;2713;42.680;23.310;2022-08-07T10:21:17;8.10;;;7.40;;
5379;SDS011;2713;42.680;23.310;2022-08-07T10:23:57;8.70;;;8.00;;
5379;SDS011;2713;42.680;23.310;2022-08-07T10:26:39;9.50;;;8.63;;
5379;SDS011;2713;42.680;23.310;2022-08-07T10:29:21;8.37;;;7.67;;
5379;SDS011;2713;42.680;23.310;2022-08-07T10:32:08;8.47;;;7.67;;
5379;SDS011;2713;42.680;23.310;2022-08-07T10:34:52;8.07;;;7.37;;
5379;SDS011;2713;42.680;23.310;2022-08-07T10:37:33;8.90;;;8.00;;
5379;SDS011;2713;42.680;23.310;2022-08-07T10:40:09;8.60;;;7.83;;
5379;SDS011;2713;42.680;23.310;2022-08-07T10:42:41;8.67;;;7.87;;
5379;SDS011;2713;42.680;23.310;2022-08-07T10:45:17;9.57;;;8.77;;
5379;SDS011;2713;42.680;23.310;2022-08-07T10:47:50;9.70;;;8.80;;
5379;SDS011;2713;42.680;23.310;2022-08-07T10:50:30;10.20;;;9.23;;
5379;SDS011;2713;42.680;23.310;2022-08-07T10:53:02;10.37;;;9.47;;
5379;SDS011;2713;42.680;23.310;2022-08-07T10:55:40;9.50;;;8.60;;
5379;SDS011;2713;42.680;23.310;2022-08-07T10:58:23;10.77;;;9.67;;
5379;SDS011;2713;42.680;23.310;2022-08-07T11:01:05;9.73;;;8.93;;
5379;SDS011;2713;42.680;23.310;2022-08-07T11:03:44;10.17;;;9.27;;
5379;SDS011;2713;42.680;23.310;2022-08-07T11:06:15;9.70;;;8.90;;
5379;SDS011;2713;42.680;23.310;2022-08-07T11:08:48;9.50;;;8.70;;
5379;SDS011;2713;42.680;23.310;2022-08-07T11:11:23;9.30;;;8.50;;
5379;SDS011;2713;42.680;23.310;2022-08-07T11:13:57;9.90;;;8.90;;
5379;SDS011;2713;42.680;23.310;2022-08-07T11:16:30;10.67;;;9.67;;
5379;SDS011;2713;42.680;23.310;2022-08-07T11:19:04;8.33;;;7.63;;
5379;SDS011;2713;42.680;23.310;2022-08-07T11:21:37;9.93;;;9.03;;
5379;SDS011;2713;42.680;23.310;2022-08-07T11:24:13;9.70;;;8.80;;
5379;SDS011;2713;42.680;23.310;2022-08-07T11:26:48;9.40;;;8.43;;
5379;SDS011;2713;42.680;23.310;2022-08-07T11:29:22;9.37;;;8.57;;
5379;SDS011;2713;42.680;23.310;2022-08-07T11:31:57;8.40;;;7.70;;
5379;SDS011;2713;42.680;23.310;2022-08-07T11:34:32;10.40;;;9.20;;
5379;SDS011;2713;42.680;23.310;2022-08-07T11:37:05;10.53;;;9.43;;
5379;SDS011;2713;42.680;23.310;2022-08-07T11:39:44;10.50;;;9.50;;
5379;SDS011;2713;42.680;23.310;2022-08-07T11:42:26;10.83;;;9.83;;
5379;SDS011;2713;42.680;23.310;2022-08-07T11:45:07;10.70;;;9.70;;
5379;SDS011;2713;42.680;23.310;2022-08-07T11:47:47;11.90;;;10.80;;
5379;SDS011;2713;42.680;23.310;2022-08-07T11:50:29;11.13;;;10.13;;
5379;SDS011;2713;42.680;23.310;2022-08-07T11:53:18;10.37;;;9.37;;
5379;SDS011;2713;42.680;23.310;2022-08-07T11:55:55;11.13;;;10.00;;
5379;SDS011;2713;42.680;23.310;2022-08-07T11:58:36;12.60;;;10.30;;
5379;SDS011;2713;42.680;23.310;2022-08-07T12:01:13;10.50;;;9.60;;
5379;SDS011;2713;42.680;23.310;2022-08-07T12:04:06;10.70;;;9.60;;
5379;SDS011;2713;42.680;23.310;2022-08-07T12:06:45;11.50;;;10.30;;
5379;SDS011;2713;42.680;23.310;2022-08-07T12:09:16;11.23;;;10.13;;
5379;SDS011;2713;42.680;23.310;2022-08-07T12:11:52;11.37;;;10.07;;
5379;SDS011;2713;42.680;23.310;2022-08-07T12:14:24;10.93;;;10.00;;
5379;SDS011;2713;42.680;23.310;2022-08-07T12:16:55;10.67;;;9.67;;
5379;SDS011;2713;42.680;23.310;2022-08-07T12:19:33;10.33;;;9.43;;
5379;SDS011;2713;42.680;23.310;2022-08-07T12:22:11;10.10;;;9.10;;
5379;SDS011;2713;42.680;23.310;2022-08-07T12:24:46;9.07;;;8.17;;
5379;SDS011;2713;42.680;23.310;2022-08-07T12:27:38;9.83;;;8.90;;
5379;SDS011;2713;42.680;23.310;2022-08-07T12:30:09;9.60;;;8.63;;
5379;SDS011;2713;42.680;23.310;2022-08-07T12:32:39;11.63;;;9.63;;
5379;SDS011;2713;42.680;23.310;2022-08-07T12:35:10;10.13;;;9.23;;
5379;SDS011;2713;42.680;23.310;2022-08-07T12:37:40;10.50;;;9.50;;
5379;SDS011;2713;42.680;23.310;2022-08-07T12:40:12;11.83;;;10.63;;
5379;SDS011;2713;42.680;23.310;2022-08-07T12:42:44;12.07;;;10.87;;
5379;SDS011;2713;42.680;23.310;2022-08-07T12:45:14;11.83;;;10.60;;
5379;SDS011;2713;42.680;23.310;2022-08-07T12:47:46;10.73;;;9.73;;
5379;SDS011;2713;42.680;23.310;2022-08-07T12:50:20;8.97;;;8.13;;
5379;SDS011;2713;42.680;23.310;2022-08-07T12:52:58;9.07;;;8.13;;
5379;SDS011;2713;42.680;23.310;2022-08-07T12:55:31;9.53;;;8.57;;
5379;SDS011;2713;42.680;23.310;2022-08-07T12:58:03;9.90;;;9.00;;
5379;SDS011;2713;42.680;23.310;2022-08-07T13:00:34;15.63;;;10.37;;
5379;SDS011;2713;42.680;23.310;2022-08-07T13:03:19;10.20;;;9.20;;
5379;SDS011;2713;42.680;23.310;2022-08-07T13:06:14;9.60;;;8.70;;
5379;SDS011;2713;42.680;23.310;2022-08-07T13:08:58;11.17;;;10.10;;
5379;SDS011;2713;42.680;23.310;2022-08-07T13:11:31;9.97;;;9.07;;
5379;SDS011;2713;42.680;23.310;2022-08-07T13:14:06;9.70;;;8.80;;
5379;SDS011;2713;42.680;23.310;2022-08-07T13:16:46;9.07;;;8.30;;
5379;SDS011;2713;42.680;23.310;2022-08-07T13:19:22;8.67;;;7.97;;
5379;SDS011;2713;42.680;23.310;2022-08-07T13:21:58;8.60;;;7.80;;
5379;SDS011;2713;42.680;23.310;2022-08-07T13:24:38;8.60;;;7.90;;
5379;SDS011;2713;42.680;23.310;2022-08-07T13:27:09;9.80;;;8.90;;
5379;SDS011;2713;42.680;23.310;2022-08-07T13:29:43;9.00;;;8.20;;
5379;SDS011;2713;42.680;23.310;2022-08-07T13:32:19;9.23;;;8.47;;
5379;SDS011;2713;42.680;23.310;2022-08-07T13:34:53;9.20;;;8.40;;
5379;SDS011;2713;42.680;23.310;2022-08-07T13:37:27;9.67;;;8.87;;
5379;SDS011;2713;42.680;23.310;2022-08-07T13:40:13;9.53;;;8.67;;
5379;SDS011;2713;42.680;23.310;2022-08-07T13:42:47;9.63;;;8.80;;
5379;SDS011;2713;42.680;23.310;2022-08-07T13:45:15;9.87;;;8.53;;
5379;SDS011;2713;42.680;23.310;2022-08-07T13:47:46;10.00;;;9.00;;
5379;SDS011;2713;42.680;23.310;2022-08-07T13:50:16;9.47;;;8.63;;
5379;SDS011;2713;42.680;23.310;2022-08-07T13:52:47;9.63;;;8.73;;
5379;SDS011;2713;42.680;23.310;2022-08-07T13:55:18;9.97;;;9.07;;
5379;SDS011;2713;42.680;23.310;2022-08-07T13:57:48;9.60;;;8.80;;
5379;SDS011;2713;42.680;23.310;2022-08-07T14:00:17;9.33;;;8.53;;
5379;SDS011;2713;42.680;23.310;2022-08-07T14:02:46;9.57;;;8.77;;
5379;SDS011;2713;42.680;23.310;2022-08-07T14:05:19;8.90;;;8.10;;
5379;SDS011;2713;42.680;23.310;2022-08-07T14:07:48;9.40;;;8.60;;
5379;SDS011;2713;42.680;23.310;2022-08-07T14:10:18;9.70;;;8.80;;
5379;SDS011;2713;42.680;23.310;2022-08-07T14:12:47;9.13;;;8.33;;
5379;SDS011;2713;42.680;23.310;2022-08-07T14:15:24;9.07;;;8.27;;
5379;SDS011;2713;42.680;23.310;2022-08-07T14:17:55;9.17;;;8.30;;
5379;SDS011;2713;42.680;23.310;2022-08-07T14:20:25;10.00;;;9.00;;
5379;SDS011;2713;42.680;23.310;2022-08-07T14:22:59;10.37;;;9.47;;
5379;SDS011;2713;42.680;23.310;2022-08-07T14:25:31;9.23;;;8.43;;
5379;SDS011;2713;42.680;23.310;2022-08-07T14:28:02;10.53;;;9.63;;
5379;SDS011;2713;42.680;23.310;2022-08-07T14:30:33;10.80;;;9.67;;
5379;SDS011;2713;42.680;23.310;2022-08-07T14:33:02;10.50;;;9.60;;
5379;SDS011;2713;42.680;23.310;2022-08-07T14:35:31;10.37;;;9.57;;
5379;SDS011;2713;42.680;23.310;2022-08-07T14:38:00;9.93;;;9.00;;
5379;SDS011;2713;42.680;23.310;2022-08-07T14:40:30;10.70;;;9.70;;
5379;SDS011;2713;42.680;23.310;2022-08-07T14:43:00;10.30;;;9.30;;
5379;SDS011;2713;42.680;23.310;2022-08-07T14:45:31;10.30;;;9.30;;
5379;SDS011;2713;42.680;23.310;2022-08-07T14:48:05;11.20;;;10.10;;
5379;SDS011;2713;42.680;23.310;2022-08-07T14:50:34;18.07;;;14.17;;
5379;SDS011;2713;42.680;23.310;2022-08-07T14:53:07;14.83;;;13.10;;
5379;SDS011;2713;42.680;23.310;2022-08-07T14:55:37;11.33;;;10.30;;
5379;SDS011;2713;42.680;23.310;2022-08-07T14:58:09;12.47;;;11.27;;
5379;SDS011;2713;42.680;23.310;2022-08-07T15:00:38;11.33;;;10.20;;
5379;SDS011;2713;42.680;23.310;2022-08-07T15:03:09;11.50;;;10.40;;
5379;SDS011;2713;42.680;23.310;2022-08-07T15:05:37;11.17;;;10.07;;
5379;SDS011;2713;42.680;23.310;2022-08-07T15:08:08;11.37;;;10.37;;
5379;SDS011;2713;42.680;23.310;2022-08-07T15:10:39;11.23;;;10.13;;
5379;SDS011;2713;42.680;23.310;2022-08-07T15:13:09;11.57;;;10.47;;
5379;SDS011;2713;42.680;23.310;2022-08-07T15:15:42;10.87;;;9.80;;
5379;SDS011;2713;42.680;23.310;2022-08-07T15:18:14;11.60;;;10.40;;
5379;SDS011;2713;42.680;23.310;2022-08-07T15:20:46;12.03;;;10.93;;
5379;SDS011;2713;42.680;23.310;2022-08-07T15:23:17;11.90;;;10.13;;
5379;SDS011;2713;42.680;23.310;2022-08-07T15:25:51;14.67;;;10.73;;